Home > Products > Valid Products > TAF

000
FTUS44 KCRP 201900 AAA
TAFVCT
TAF AMD
KVCT 201942Z 2020/2118 06011KT P6SM VCTS SCT030CB BKN150
      TEMPO 2020/2023 5SM TSRA BKN025CB
     FM210000 VRB04KT P6SM SCT025
      TEMPO 2110/2114 4SM BR BKN018=



000
FTUS44 KCRP 201700
TAFALI
TAF
KALI 201726Z 2018/2118 08010KT P6SM VCTS SCT035CB
      TEMPO 2018/2022 4SM TSRA BKN028CB
     FM210000 06003KT P6SM FEW015
      TEMPO 2110/2114 4SM BR OVC011
     FM211500 07008KT P6SM SCT030=



000
FTUS44 KCRP 201700
TAFLRD
TAF
KLRD 201726Z 2018/2118 15008KT P6SM VCTS SCT030CB BKN150
      TEMPO 2018/2022 4SM TSRA SCT035CB
     FM210300 11008KT P6SM SCT020
      TEMPO 2109/2113 6SM BR BKN020
     FM211500 09008KT P6SM SCT030=



000
FTUS44 KCRP 201700
TAFCRP
TAF
KCRP 201726Z 2018/2118 08012KT P6SM VCTS SCT030CB BKN150
      TEMPO 2018/2022 4SM TSRA BKN025CB
     FM210000 08006KT P6SM SCT025
     FM210900 04004KT P6SM FEW015
      TEMPO 2110/2113 P6SM BKN015
     FM211500 05009KT P6SM FEW025=



000
FTUS44 KCRP 201700
TAFVCT
TAF
KVCT 201726Z 2018/2118 06011KT P6SM VCTS BKN025CB BKN150
      TEMPO 2018/2021 4SM TSRA BKN018CB
     FM210000 VRB04KT P6SM SCT025
      TEMPO 2110/2114 4SM BR BKN018=



000
FTUS44 KCRP 201100
TAFVCT
TAF
KVCT 201132Z 2012/2112 VRB04KT 6SM BR VCSH SCT015 BKN150
      TEMPO 2012/2014 5SM -SHRA BKN015
     FM201400 06008KT P6SM VCSH SCT018
     FM201700 08011KT P6SM VCTS BKN025CB BKN150
      TEMPO 2017/2021 4SM TSRA BKN018CB
     FM210000 08005KT P6SM SCT025
     FM211000 03003KT 4SM BR BKN018=



000
FTUS44 KCRP 201100
TAFLRD
TAF
KLRD 201132Z 2012/2112 12006KT P6SM SCT012 BKN100
      TEMPO 2012/2014 BKN012
     FM201500 15008KT P6SM SCT025 BKN150
     FM202000 12012KT P6SM VCTS SCT040CB
     FM210300 11008KT P6SM SCT040=



000
FTUS44 KCRP 201100
TAFCRP
TAF
KCRP 201132Z 2012/2112 08008KT P6SM SCT018 BKN150
     FM201400 08008KT P6SM VCSH SCT025 BKN100
      TEMPO 2014/2018 3SM SHRA
     FM201800 08012KT P6SM VCTS SCT035CB BKN150
      TEMPO 2018/2022 4SM TSRA BKN025CB
     FM210000 08006KT P6SM SCT025
     FM210900 04004KT P6SM FEW015=



000
FTUS44 KCRP 201100
TAFALI
TAF
KALI 201132Z 2012/2112 05004KT P6SM SCT018 BKN080
      TEMPO 2012/2014 5SM BR BKN018
     FM201400 10008KT P6SM VCSH SCT025 BKN100
      TEMPO 2015/2018 4SM SHRA
     FM201800 09010KT P6SM VCTS SCT035CB
      TEMPO 2018/2022 4SM TSRA BKN028CB
     FM210000 06003KT P6SM SCT015
     FM211000 03003KT 4SM BR BKN012=



000
FTUS44 KCRP 200700 AAA
TAFLRD
TAF AMD
KLRD 200715Z 2007/2106 10006KT P6SM BKN013
      TEMPO 2007/2009 4SM SHRA
     FM201100 12006KT P6SM SCT008 BKN100
      TEMPO 2011/2014 5SM BR BKN008
     FM201500 15008KT P6SM SCT025 BKN150
     FM202000 12012KT P6SM VCTS SCT040CB
     FM210300 11008KT P6SM SCT040=



000
FTUS44 KCRP 200500
TAFCRP
TAF
KCRP 200530Z 2006/2106 08008KT P6SM SCT018 BKN150
     FM201400 08008KT P6SM VCSH SCT025 BKN100
     FM201800 08012KT P6SM VCTS SCT035CB BKN150
      TEMPO 2018/2022 4SM TSRA BKN025CB
     FM210000 08006KT P6SM SCT025=



000
FTUS44 KCRP 200500
TAFLRD
TAF
KLRD 200530Z 2006/2106 13008KT P6SM SCT040 BKN100
     FM201100 12006KT P6SM SCT008 BKN100
      TEMPO 2011/2014 5SM BR BKN008
     FM201500 15008KT P6SM SCT025 BKN150
     FM202000 12012KT P6SM VCTS SCT040CB
     FM210300 11008KT P6SM SCT040=



000
FTUS44 KCRP 200500
TAFVCT
TAF
KVCT 200530Z 2006/2106 13009KT P6SM SCT025 BKN150
     FM200900 VRB04KT 5SM BR SCT015 BKN150
      TEMPO 2009/2013 2SM BR BKN015
     FM201300 06008KT P6SM VCSH SCT018
     FM201700 08011KT P6SM VCTS BKN025CB BKN150
      TEMPO 2017/2021 4SM TSRA BKN018CB
     FM210000 11008KT P6SM SCT025=



000
FTUS44 KCRP 200500
TAFALI
TAF
KALI 200530Z 2006/2106 11010KT P6SM SCT025 BKN200
      TEMPO 2006/2009 BKN018
     FM200900 08004KT P6SM SCT018 BKN080
      TEMPO 2010/2013 5SM BR BKN018
     FM201400 10008KT P6SM VCSH SCT025 BKN100
     FM201800 09011KT P6SM VCTS SCT035CB
      TEMPO 2018/2022 4SM TSRA BKN028CB
     FM210000 06003KT P6SM SCT015=



000
FTUS44 KCRP 200200 AAA
TAFLRD
TAF AMD
KLRD 200204Z 2002/2024 11012KT P6SM VCSH SCT035 BKN080
     FM200400 13008KT P6SM SCT040 BKN100
     FM201100 15005KT P6SM SCT008 BKN100
      TEMPO 2011/2014 5SM BR BKN008
     FM201500 15009KT P6SM SCT025 BKN150
     FM202000 12012KT P6SM VCTS SCT040CB BKN150 PROB30 2020/2024 5SM
      TSRA BKN030CB=



000
FTUS44 KCRP 200100 AAA
TAFALI
TAF AMD
KALI 200130Z 2002/2024 11010KT P6SM SCT025 BKN200
      TEMPO 2002/2006 BKN025
     FM200900 08004KT P6SM SCT018 BKN080
      TEMPO 2010/2013 5SM BR BKN018
     FM201400 10008KT P6SM VCSH SCT025 BKN100
     FM201800 09011KT P6SM VCTS SCT035CB BKN150 PROB30 2018/2022 4SM
      TSRA BKN028CB=



000
FTUS44 KCRP 200000 AAA
TAFCRP
TAF AMD
KCRP 200013Z 2000/2024 11012KT P6SM SCT012 BKN250
      TEMPO 2000/2004 BKN012
     FM200800 10005KT P6SM SCT018 BKN150
     FM201400 08008KT P6SM VCSH SCT025 BKN100 PROB30 2014/2018 5SM
      -SHRA BKN025
     FM201800 08012KT P6SM VCTS SCT035CB BKN150 PROB30 2018/2022 4SM
      TSRA BKN025CB=



000
FTUS44 KCRP 192300 RRA
TAFCRP
TAF
KCRP 192341Z 2000/2024 11012KT P6SM SCT018 BKN250
     FM200800 10005KT P6SM SCT018 BKN150
     FM201400 08008KT P6SM VCSH SCT025 BKN100 PROB30 2014/2018 5SM
      -SHRA BKN025
     FM201800 08012KT P6SM VCTS SCT035CB BKN150 PROB30 2018/2022 4SM
      TSRA BKN025CB=



000
FTUS44 KCRP 192300 RRA
TAFALI
TAF
KALI 192341Z 2000/2024 11010KT P6SM SCT025 BKN200
     FM200900 08004KT P6SM SCT018 BKN080
      TEMPO 2010/2013 5SM BR BKN018
     FM201400 10008KT P6SM VCSH SCT025 BKN100
     FM201800 09011KT P6SM VCTS SCT035CB BKN150 PROB30 2018/2022 4SM
      TSRA BKN028CB=



000
FTUS44 KCRP 192300 RRA
TAFVCT
TAF
KVCT 192341Z 2000/2024 13009KT P6SM SCT025 BKN150
     FM200900 VRB04KT 5SM BR SCT015 BKN150
      TEMPO 2009/2013 2SM BR BKN015
     FM201300 06008KT P6SM VCSH SCT018 BKN100 PROB30 2013/2017 5SM
      -SHRA BKN018
     FM201700 08011KT P6SM VCTS BKN025CB BKN150 PROB30 2017/2021 4SM
      TSRA BKN018CB=



000
FTUS44 KCRP 192300 RRA
TAFLRD
TAF
KLRD 192341Z 2000/2024 12011KT P6SM VCSH SCT035 BKN100
      TEMPO 2000/2003 VRB15G25KT 5SM TSRA BKN035CB
     FM200400 14008KT P6SM SCT050 BKN150
     FM201100 15005KT P6SM SCT008 BKN100
      TEMPO 2011/2014 5SM BR BKN008
     FM201500 15009KT P6SM SCT025 BKN150
     FM202000 12012KT P6SM VCTS SCT040CB BKN150 PROB30 2020/2024 5SM
      TSRA BKN030CB=



000
FTUS44 KCRP 192200 AAA
TAFLRD
TAF AMD
KLRD 192212Z 1922/2018 14012KT P6SM VCSH SCT050 BKN150
      TEMPO 1922/2002 VRB15G25KT 5SM TSRA BKN035CB
     FM200200 13010KT P6SM BKN050 OVC250=



000
FTUS44 KCRP 192000 AAA
TAFVCT
TAF AMD
KVCT 192002Z 1920/2018 12009KT P6SM VCSH BKN018 BKN150
      TEMPO 1920/1922 -SHRA
     FM192200 13010KT P6SM BKN025 BKN150
     FM200200 VRB04KT P6SM BKN035 PROB30 2010/2014 2SM SHRA BR
      BKN016
     FM201400 06010KT P6SM VCTS SCT025CB BKN040=



000
FTUS44 KCRP 191900 AAA
TAFCRP
TAF AMD
KCRP 191919Z 1919/2018 VRB06KT P6SM VCTS SCT035CB BKN250
      TEMPO 1919/1922 VRB15G25KT 5SM -TSRA BKN035CB
     FM192200 13012KT P6SM SCT025 BKN250
     FM200100 13005KT P6SM SCT018 BKN150
     FM201400 11010KT P6SM VCSH SCT025 BKN040=



000
FTUS44 KCRP 191700
TAFCRP
TAF
KCRP 191720Z 1918/2018 VRB06KT P6SM VCSH SCT035 BKN250
      TEMPO 1918/1922 -SHRA BKN035
     FM192200 13012KT P6SM SCT025 BKN250
     FM200100 13005KT P6SM SCT018 BKN150
     FM201400 11010KT P6SM VCSH SCT025 BKN040=



000
FTUS44 KCRP 191700
TAFLRD
TAF
KLRD 191720Z 1918/2018 15010KT P6SM SCT025 BKN250
      TEMPO 1918/1920 BKN025
     FM192100 15013KT P6SM VCSH SCT040 BKN180
     FM200200 13010KT P6SM BKN050 OVC250=



000
FTUS44 KCRP 191700
TAFVCT
TAF
KVCT 191720Z 1918/2018 08009KT P6SM VCTS SCT018CB BKN150
      TEMPO 1918/1922 VRB12G20KT 4SM -TSRA BR BKN025CB
     FM200100 VRB04KT P6SM BKN035 PROB30 2010/2014 2SM SHRA BR
      BKN016
     FM201400 06010KT P6SM VCTS SCT025CB BKN040=



000
FTUS44 KCRP 191700
TAFALI
TAF
KALI 191720Z 1918/2018 16006KT P6SM VCSH SCT035 BKN250
      TEMPO 1920/1923 -SHRA BKN035
     FM192300 13011KT P6SM BKN035
     FM201000 VRB04KT 5SM BR BKN018
     FM201400 12010KT P6SM VCSH SCT025 BKN040=



000
FTUS44 KCRP 191600 AAA
TAFLRD
TAF AMD
KLRD 191613Z 1916/2012 15010KT P6SM SCT025
      TEMPO 1916/1919 BKN015
     FM191900 15012KT P6SM VCSH SCT040
     FM200000 13010KT P6SM BKN050=



000
FTUS44 KCRP 191100
TAFVCT
TAF
KVCT 191138Z 1912/2012 VRB03KT P6SM SCT012
      TEMPO 1912/1914 3SM BR BKN005
     FM191500 14008KT P6SM VCTS SCT035CB BKN150
     FM200100 VRB04KT P6SM BKN035=



000
FTUS44 KCRP 191100
TAFLRD
TAF
KLRD 191138Z 1912/2012 13010KT P6SM SCT025
      TEMPO 1912/1914 BKN015
     FM191900 15012KT P6SM VCSH SCT040
     FM200000 13010KT P6SM BKN050=



000
FTUS44 KCRP 191100
TAFCRP
TAF
KCRP 191138Z 1912/2012 VRB04KT P6SM FEW015 SCT150
     FM191500 13012KT P6SM VCSH SCT025 BKN250
     FM200000 13005KT P6SM BKN035=



000
FTUS44 KCRP 191100
TAFALI
TAF
KALI 191138Z 1912/2012 VRB03KT 5SM BR SCT025
      TEMPO 1912/1914 3SM BR BKN012
     FM191600 13010KT P6SM VCSH FEW025 BKN150
     FM200000 13008KT P6SM BKN035=



000
FTUS44 KCRP 190500
TAFVCT
TAF
KVCT 190533Z 1906/2006 12005KT P6SM SCT021
     FM191000 VRB03KT P6SM SCT012
      TEMPO 1910/1914 3SM BR BKN004
     FM191500 14008KT P6SM VCTS SCT035CB BKN150
     FM200100 VRB04KT P6SM BKN035=



000
FTUS44 KCRP 190500
TAFALI
TAF
KALI 190533Z 1906/2006 14010KT P6SM FEW035 SCT100
     FM191100 VRB03KT 5SM BR SCT150
      TEMPO 1911/1914 2SM BR FEW005
     FM191500 13010KT P6SM VCSH FEW025 BKN150
     FM200000 13008KT P6SM BKN035=



000
FTUS44 KCRP 190500
TAFLRD
TAF
KLRD 190533Z 1906/2006 13010KT P6SM SCT050
      TEMPO 1910/1914 BKN015
     FM191500 15012KT P6SM VCSH SCT040
     FM200000 13010KT P6SM BKN050=



000
FTUS44 KCRP 190500
TAFCRP
TAF
KCRP 190533Z 1906/2006 13008KT P6SM SCT025 BKN150
     FM190900 VRB04KT P6SM FEW015 SCT150
     FM191500 13012KT P6SM VCSH SCT025 BKN250
     FM200000 13005KT P6SM BKN035=



000
FTUS44 KCRP 182300
TAFVCT
TAF
KVCT 182328Z 1900/1924 15008KT P6SM VCTS FEW035CB BKN150
     FM190300 12005KT P6SM FEW025 SCT150
     FM191500 10008KT P6SM VCTS SCT030CB BKN150=



000
FTUS44 KCRP 182300
TAFLRD
TAF
KLRD 182328Z 1900/1924 13010KT P6SM SCT050
      TEMPO 1910/1914 BKN015
     FM191500 15012KT P6SM VCSH FEW040=



000
FTUS44 KCRP 182300
TAFALI
TAF
KALI 182328Z 1900/1924 14010KT P6SM FEW035 SCT100
     FM191100 VRB03KT 5SM BR SCT150
      TEMPO 1911/1914 2SM BR FEW005
     FM191500 15008KT P6SM VCSH FEW025 BKN150=



000
FTUS44 KCRP 182300
TAFCRP
TAF
KCRP 182328Z 1900/1924 14012KT P6SM VCSH FEW035 SCT150
     FM190300 13008KT P6SM SCT025 BKN150
     FM190900 VRB04KT P6SM FEW015 SCT150
     FM191500 14012KT P6SM VCSH SCT025 BKN250=



000
FTUS44 KCRP 181900 AAA
TAFVCT
TAF AMD
KVCT 181939Z 1820/1918 15008KT P6SM VCTS SCT035CB BKN250
      TEMPO 1820/1821 VRB20G30KT 1SM TSRA
     FM190100 12005KT P6SM FEW015 SCT250
      TEMPO 1910/1914 5SM BR
     FM191500 10008KT P6SM VCTS SCT035CB BKN250=



000
FTUS44 KCRP 181700
TAFVCT
TAF
KVCT 181720Z 1818/1918 15008KT P6SM VCTS SCT035CB BKN250
     FM190100 12005KT P6SM FEW015 SCT250
      TEMPO 1910/1914 5SM BR
     FM191500 10008KT P6SM VCTS SCT035CB BKN250=



000
FTUS44 KCRP 181700
TAFCRP
TAF
KCRP 181720Z 1818/1918 17012G18KT P6SM SCT035 BKN250
     FM182000 14012G18KT P6SM VCTS SCT045CB BKN250
     FM190100 13008KT P6SM SCT025 BKN250
     FM190900 VRB04KT P6SM FEW015 SCT250
     FM191500 14008KT P6SM VCSH SCT025 BKN250=



000
FTUS44 KCRP 181700
TAFALI
TAF
KALI 181720Z 1818/1918 17012G16KT P6SM FEW035
     FM182100 14012G18KT P6SM FEW035 SCT250
     FM190100 14008KT P6SM FEW025
     FM191100 VRB03KT 5SM BR FEW250
      TEMPO 1911/1914 2SM BR FEW005 SCT250
     FM191500 13008KT P6SM VCSH FEW025 BKN250=



000
FTUS44 KCRP 181700
TAFLRD
TAF
KLRD 181720Z 1818/1918 15012KT P6SM FEW040
     FM190000 13010KT P6SM SCT020
      TEMPO 1910/1914 BKN015
     FM191500 13012KT P6SM VCSH FEW040=



000
FTUS44 KCRP 181100
TAFLRD
TAF
KLRD 181132Z 1812/1912 15008KT P6SM SCT012
      TEMPO 1812/1814 BKN012
     FM181600 15012KT P6SM FEW040
     FM190000 13010KT P6SM SCT040=



000
FTUS44 KCRP 181100
TAFVCT
TAF
KVCT 181132Z 1812/1912 14005KT P6SM VCSH SCT015 BKN110
     FM181500 15008KT P6SM VCTS SCT035CB
     FM190000 12005KT P6SM FEW015=



000
FTUS44 KCRP 181100
TAFALI
TAF
KALI 181132Z 1812/1912 17006KT P6SM SCT015 SCT040
      TEMPO 1812/1815 4SM BR BKN012
     FM181500 17006KT P6SM FEW035
     FM182100 13012KT P6SM VCTS SCT045CB
     FM190100 14008KT P6SM SCT025=



000
FTUS44 KCRP 181100
TAFCRP
TAF
KCRP 181132Z 1812/1912 16008KT P6SM FEW015
     FM181600 17010KT P6SM VCSH FEW025
     FM182000 14012KT P6SM VCTS SCT045CB
     FM190100 13008KT P6SM SCT025=



000
FTUS44 KCRP 180500
TAFALI
TAF
KALI 180533Z 1806/1906 17006KT P6SM SCT015 SCT040
      TEMPO 1810/1814 BKN009
     FM181500 17006KT P6SM FEW035
     FM182100 13012KT P6SM SCT045
     FM190100 14008KT P6SM SCT025=



000
FTUS44 KCRP 180500
TAFVCT
TAF
KVCT 180533Z 1806/1906 13005KT P6SM FEW015
     FM180700 14005KT P6SM SCT015 BKN150
      TEMPO 1811/1815 P6SM BKN012
     FM181500 15008KT P6SM VCTS SCT035CB
     FM190000 12005KT P6SM FEW015=



000
FTUS44 KCRP 180500
TAFLRD
TAF
KLRD 180533Z 1806/1906 17011KT P6SM FEW060
     FM180900 15008KT P6SM FEW015
      TEMPO 1812/1815 P6SM BKN008
     FM181600 15012KT P6SM FEW040
     FM190000 13010KT P6SM SCT040=



000
FTUS44 KCRP 180500
TAFCRP
TAF
KCRP 180533Z 1806/1906 16008KT P6SM FEW015
     FM181600 17010KT P6SM FEW025
     FM182100 14012KT P6SM SCT045
     FM190100 13008KT P6SM SCT025=



000
FTUS44 KCRP 172300
TAFCRP
TAF
KCRP 172325Z 1800/1824 15011KT P6SM FEW035 SCT100
     FM180300 16007KT P6SM FEW015 BKN150
      TEMPO 1811/1815 P6SM BKN015
     FM181600 17010KT P6SM VCSH FEW030 SCT250
     FM182200 14012KT P6SM FEW030 SCT150=



000
FTUS44 KCRP 172300
TAFLRD
TAF
KLRD 172325Z 1800/1824 17011KT P6SM FEW060 BKN150
     FM180900 15008KT P6SM FEW015 BKN150
      TEMPO 1811/1815 P6SM BKN008
     FM181600 15012KT P6SM FEW040=



000
FTUS44 KCRP 172300
TAFVCT
TAF
KVCT 172325Z 1800/1824 16008KT P6SM VCTS SCT035CB OVC100
      TEMPO 1800/1803 VRB10KT TSRA BKN035CB
     FM180300 15005KT P6SM FEW015 BKN150
     FM180700 14005KT P6SM SCT015 BKN150
      TEMPO 1811/1815 P6SM BKN012
     FM181500 15008KT P6SM VCTS SCT025CB=



000
FTUS44 KCRP 172300
TAFALI
TAF
KALI 172325Z 1800/1824 16010KT P6SM VCSH SCT040 BKN150
     FM180300 16006KT P6SM SCT015 SCT040
      TEMPO 1811/1815 BKN009
     FM181600 14010KT P6SM VCSH FEW030 SCT150=



    US Dept of Commerce
    National Oceanic and Atmospheric Administration
    National Weather Service
    1325 East West Highway
    Silver Spring, MD 20910
    Page Author: NWS Internet Services Team
Disclaimer
Information Quality
Credits
Glossary
Privacy Policy
Freedom of Information Act (FOIA)
About Us
Career Opportunities